createdAt,value
2023-05-09T00:01:22.183Z,16.80
2023-05-09T00:04:25.130Z,16.70
2023-05-09T00:07:26.998Z,16.70
2023-05-09T00:10:33.564Z,16.70
2023-05-09T00:13:35.796Z,16.70
2023-05-09T00:16:40.998Z,16.60
2023-05-09T00:19:43.689Z,16.60
2023-05-09T00:22:46.432Z,16.60
2023-05-09T00:25:48.228Z,16.60
2023-05-09T00:28:54.697Z,16.70
2023-05-09T00:31:56.772Z,16.60
2023-05-09T00:34:59.366Z,16.60
2023-05-09T00:38:01.240Z,16.70
2023-05-09T00:41:10.911Z,16.60
2023-05-09T00:44:12.879Z,16.60
2023-05-09T00:47:14.738Z,16.60
2023-05-09T00:50:17.006Z,16.50
2023-05-09T00:53:22.983Z,16.50
2023-05-09T00:56:25.505Z,16.50
2023-05-09T00:59:28.592Z,16.40
2023-05-09T01:02:31.618Z,16.40
2023-05-09T01:05:57.124Z,16.40
2023-05-09T01:09:10.448Z,16.50
2023-05-09T01:12:19.178Z,16.50
2023-05-09T01:15:37.959Z,16.50
2023-05-09T01:18:54.533Z,16.50
2023-05-09T01:21:57.892Z,16.40
2023-05-09T01:25:07.224Z,16.40
2023-05-09T01:28:19.101Z,16.30
2023-05-09T01:31:22.189Z,16.30
2023-05-09T01:34:27.352Z,16.30
2023-05-09T01:37:33.031Z,16.30
2023-05-09T01:40:36.340Z,16.30
2023-05-09T01:43:40.579Z,16.20
2023-05-09T01:46:43.802Z,16.20
2023-05-09T01:49:47.612Z,16.10
2023-05-09T01:52:53.208Z,16.10
2023-05-09T01:55:57.652Z,16.10
2023-05-09T01:59:01.002Z,16.10
2023-05-09T02:02:07.269Z,16.00
2023-05-09T02:05:11.358Z,16.00
2023-05-09T02:08:15.151Z,16.10
2023-05-09T02:11:17.105Z,16.10
2023-05-09T02:14:19.121Z,16.10
2023-05-09T02:17:21.683Z,16.20
2023-05-09T02:20:25.081Z,16.10
2023-05-09T02:23:26.923Z,16.20
2023-05-09T02:26:30.067Z,16.20
2023-05-09T02:29:41.734Z,16.20
2023-05-09T02:32:48.379Z,16.10
2023-05-09T02:35:52.395Z,16.10
2023-05-09T02:38:59.208Z,16.10
2023-05-09T02:42:10.338Z,16.10
2023-05-09T02:45:13.157Z,16.10
2023-05-09T02:48:15.346Z,16.00
2023-05-09T02:51:20.357Z,16.00
2023-05-09T02:54:22.168Z,16.10
2023-05-09T02:57:23.953Z,16.00
2023-05-09T03:00:26.106Z,16.00
2023-05-09T03:03:29.521Z,16.00
2023-05-09T03:06:31.350Z,15.90
2023-05-09T03:09:34.857Z,15.80
2023-05-09T03:12:38.508Z,15.80
2023-05-09T03:15:40.374Z,15.90
2023-05-09T03:18:42.223Z,15.90
2023-05-09T03:21:44.874Z,15.90
2023-05-09T03:24:46.654Z,15.80
2023-05-09T03:27:49.190Z,15.70
2023-05-09T03:30:50.979Z,15.80
2023-05-09T03:33:53.851Z,15.80
2023-05-09T03:36:55.870Z,15.80
2023-05-09T03:40:02.361Z,15.80
2023-05-09T03:43:04.330Z,15.80
2023-05-09T03:46:07.974Z,15.80
2023-05-09T03:49:09.944Z,15.80
2023-05-09T03:52:11.908Z,15.90
2023-05-09T03:55:13.972Z,15.80
2023-05-09T03:58:17.013Z,15.80
2023-05-09T04:01:18.870Z,15.80
2023-05-09T04:04:21.147Z,15.80
2023-05-09T04:07:23.285Z,15.80
2023-05-09T04:10:27.351Z,15.70
2023-05-09T04:13:30.132Z,15.70
2023-05-09T04:16:32.204Z,15.60
2023-05-09T04:19:34.014Z,15.60
2023-05-09T04:22:39.543Z,15.60
2023-05-09T04:25:41.621Z,15.60
2023-05-09T04:28:45.022Z,15.70
2023-05-09T04:31:46.945Z,15.70
2023-05-09T04:34:50.106Z,15.70
2023-05-09T04:37:52.153Z,15.80
2023-05-09T04:41:00.371Z,15.80
2023-05-09T04:44:02.327Z,15.80
2023-05-09T04:47:05.868Z,15.80
2023-05-09T04:50:08.440Z,15.90
2023-05-09T04:53:11.066Z,16.00
2023-05-09T04:56:12.840Z,16.00
2023-05-09T04:59:15.399Z,16.00
2023-05-09T05:02:18.721Z,16.00
2023-05-09T05:05:25.088Z,16.00
2023-05-09T05:08:27.348Z,16.10
2023-05-09T05:11:29.132Z,16.10
2023-05-09T05:14:31.319Z,16.00
2023-05-09T05:17:33.430Z,16.00
2023-05-09T05:20:35.450Z,16.10
2023-05-09T05:23:37.242Z,16.10
2023-05-09T05:26:39.134Z,16.10
2023-05-09T05:29:41.110Z,16.10
2023-05-09T05:32:44.139Z,16.10
2023-05-09T05:35:47.543Z,16.10
2023-05-09T05:38:49.247Z,16.10
2023-05-09T05:41:52.104Z,16.10
2023-05-09T05:44:53.946Z,16.20
2023-05-09T05:47:56.348Z,16.20
2023-05-09T05:50:58.358Z,16.30
2023-05-09T05:54:00.182Z,16.30
2023-05-09T05:57:01.960Z,16.40
2023-05-09T06:00:07.739Z,16.40
2023-05-09T06:03:14.308Z,16.50
2023-05-09T06:06:16.392Z,16.50
2023-05-09T06:09:18.424Z,16.60
2023-05-09T06:12:20.368Z,16.60
2023-05-09T06:15:22.220Z,16.70
2023-05-09T06:18:24.727Z,16.70
2023-05-09T06:21:26.721Z,16.70
2023-05-09T06:24:35.938Z,16.70
2023-05-09T06:27:38.671Z,16.80
2023-05-09T06:30:41.449Z,16.80
2023-05-09T06:33:46.335Z,16.80
2023-05-09T06:36:49.068Z,16.80
2023-05-09T06:39:51.020Z,16.80
2023-05-09T06:42:53.121Z,16.70
2023-05-09T06:45:55.106Z,16.80
2023-05-09T06:48:58.481Z,16.70
2023-05-09T06:52:00.170Z,16.80
2023-05-09T06:55:02.960Z,16.90
2023-05-09T06:58:04.844Z,16.90
2023-05-09T07:01:07.038Z,16.90
2023-05-09T07:04:11.043Z,16.90
2023-05-09T07:07:12.880Z,17.00
2023-05-09T07:10:15.213Z,16.90
2023-05-09T07:13:17.217Z,17.10
2023-05-09T07:16:19.101Z,17.10
2023-05-09T07:19:22.557Z,17.10
2023-05-09T07:22:24.631Z,17.20
2023-05-09T07:25:26.482Z,17.30
2023-05-09T07:28:28.276Z,17.30
2023-05-09T07:31:30.456Z,17.30
2023-05-09T07:34:32.681Z,17.30
2023-05-09T07:37:35.188Z,17.40
2023-05-09T07:40:38.721Z,17.40
2023-05-09T07:43:40.575Z,17.40
2023-05-09T07:46:42.720Z,17.40
2023-05-09T07:49:46.589Z,17.40
2023-05-09T07:52:48.327Z,17.40
2023-05-09T07:55:50.280Z,17.40
2023-05-09T07:58:53.704Z,17.30
2023-05-09T08:01:57.381Z,17.30
2023-05-09T08:05:01.909Z,17.30
2023-05-09T08:08:04.679Z,17.30
2023-05-09T08:11:06.690Z,17.40
2023-05-09T08:14:08.600Z,17.40
2023-05-09T08:17:10.406Z,17.40
2023-05-09T08:20:13.286Z,17.40
2023-05-09T08:23:15.252Z,17.40
2023-05-09T08:26:17.267Z,17.30
2023-05-09T08:29:18.992Z,17.30
2023-05-09T08:32:20.980Z,17.30
2023-05-09T08:35:23.507Z,17.30
2023-05-09T08:38:27.103Z,17.20
2023-05-09T08:41:29.329Z,17.30
2023-05-09T08:44:32.169Z,17.20
2023-05-09T08:47:37.377Z,17.30
2023-05-09T08:50:46.397Z,17.30
2023-05-09T08:53:48.730Z,17.30
2023-05-09T08:56:51.327Z,17.30
2023-05-09T08:59:53.492Z,17.20
2023-05-09T09:02:58.623Z,17.20
2023-05-09T09:06:01.480Z,17.20
2023-05-09T09:09:15.585Z,17.10
2023-05-09T09:12:18.272Z,17.20
2023-05-09T09:15:23.909Z,17.10
2023-05-09T09:18:30.135Z,17.20
2023-05-09T09:21:33.099Z,17.10
2023-05-09T09:24:35.923Z,17.10
2023-05-09T09:27:40.261Z,17.10
2023-05-09T09:30:47.610Z,17.10
2023-05-09T09:33:54.564Z,17.10
2023-05-09T09:36:56.625Z,17.10
2023-05-09T09:40:03.277Z,17.00
2023-05-09T09:43:07.468Z,17.10
2023-05-09T09:46:09.945Z,17.00
2023-05-09T09:49:13.315Z,17.10
2023-05-09T09:52:23.222Z,17.10
2023-05-09T09:55:25.306Z,17.10
2023-05-09T09:58:27.568Z,17.10
2023-05-09T10:01:30.023Z,17.10
2023-05-09T10:04:38.885Z,17.10
2023-05-09T10:07:40.831Z,17.10
2023-05-09T10:10:42.881Z,17.10
2023-05-09T10:13:45.845Z,17.10
2023-05-09T10:16:54.582Z,17.10
2023-05-09T10:19:56.947Z,17.20
2023-05-09T10:23:02.799Z,17.10
2023-05-09T10:26:18.561Z,17.10
2023-05-09T10:29:28.343Z,17.10
2023-05-09T10:33:02.753Z,17.10
2023-05-09T10:36:06.454Z,17.10
2023-05-09T10:39:08.456Z,17.10
2023-05-09T10:42:12.507Z,17.10
2023-05-09T10:45:14.806Z,17.10
2023-05-09T10:48:18.609Z,17.10
2023-05-09T10:51:21.581Z,17.10
2023-05-09T10:54:34.242Z,17.10
2023-05-09T10:57:39.673Z,17.10
2023-05-09T11:00:42.579Z,17.00
2023-05-09T11:03:55.724Z,17.10
2023-05-09T11:06:58.186Z,17.00
2023-05-09T11:10:17.843Z,16.90
2023-05-09T11:13:26.193Z,16.90
2023-05-09T11:16:28.332Z,16.80
2023-05-09T11:19:37.879Z,16.70
2023-05-09T11:22:41.519Z,16.70
2023-05-09T11:25:48.641Z,16.70
2023-05-09T11:28:54.335Z,16.70
2023-05-09T11:32:07.333Z,16.60
2023-05-09T11:35:17.112Z,16.60
2023-05-09T11:38:23.833Z,16.60
2023-05-09T11:41:27.030Z,16.50
2023-05-09T11:44:30.936Z,16.50
2023-05-09T11:47:32.749Z,16.50
2023-05-09T11:50:42.015Z,16.60
2023-05-09T11:53:50.513Z,16.60
2023-05-09T11:56:53.864Z,16.60
2023-05-09T11:59:55.662Z,16.50
2023-05-09T12:02:57.676Z,16.50
2023-05-09T12:06:00.283Z,16.50
2023-05-09T12:09:03.945Z,16.50
2023-05-09T12:12:13.581Z,16.50
2023-05-09T12:15:16.901Z,16.40
2023-05-09T12:18:19.358Z,16.40
2023-05-09T12:21:22.144Z,16.40
2023-05-09T12:24:26.975Z,16.40
2023-05-09T12:27:30.579Z,16.40
2023-05-09T12:30:32.713Z,16.30
2023-05-09T12:33:37.240Z,16.30
2023-05-09T12:36:39.116Z,16.20
2023-05-09T12:39:44.051Z,16.20
2023-05-09T12:42:47.040Z,16.20
2023-05-09T12:45:53.588Z,16.30
2023-05-09T12:48:55.724Z,16.30
2023-05-09T12:52:01.106Z,16.30
2023-05-09T12:55:08.028Z,16.30
2023-05-09T12:58:10.141Z,16.30
2023-05-09T13:01:12.356Z,16.30
2023-05-09T13:04:28.842Z,16.30
2023-05-09T13:07:39.553Z,16.30
2023-05-09T13:10:42.146Z,16.30
2023-05-09T13:13:43.976Z,16.20
2023-05-09T13:16:46.278Z,16.20
2023-05-09T13:19:48.155Z,16.20
2023-05-09T13:22:51.833Z,16.20
2023-05-09T13:25:53.716Z,16.20
2023-05-09T13:28:56.810Z,16.20
2023-05-09T13:31:59.123Z,16.20
2023-05-09T13:35:00.875Z,16.20
2023-05-09T13:38:02.647Z,16.20
2023-05-09T13:41:05.647Z,16.20
2023-05-09T13:44:07.693Z,16.20
2023-05-09T13:47:11.859Z,16.30
2023-05-09T13:50:14.298Z,16.30
2023-05-09T13:53:17.047Z,16.30
2023-05-09T13:56:19.527Z,16.40
2023-05-09T13:59:33.148Z,16.20
2023-05-09T14:02:37.148Z,16.30
2023-05-09T14:05:39.839Z,16.30
2023-05-09T14:08:41.628Z,16.30
2023-05-09T14:11:44.251Z,16.30
2023-05-09T14:14:46.226Z,16.30
2023-05-09T14:17:49.648Z,16.30
2023-05-09T14:20:51.509Z,16.30
2023-05-09T14:23:53.268Z,16.30
2023-05-09T14:26:55.043Z,16.30
2023-05-09T14:29:57.524Z,16.30
2023-05-09T14:32:59.589Z,16.30
2023-05-09T14:36:03.690Z,16.30
2023-05-09T14:39:06.344Z,16.30
2023-05-09T14:42:10.413Z,16.30
2023-05-09T14:45:12.793Z,16.40
2023-05-09T14:48:20.732Z,16.30
2023-05-09T14:51:22.456Z,16.40
2023-05-09T14:54:24.226Z,16.30
2023-05-09T14:57:26.115Z,16.30
2023-05-09T15:00:29.109Z,16.30
2023-05-09T15:03:34.515Z,16.30
2023-05-09T15:06:36.642Z,16.30
2023-05-09T15:09:38.623Z,16.30
2023-05-09T15:12:40.594Z,16.30
2023-05-09T15:15:42.629Z,16.30
2023-05-09T15:18:45.989Z,16.30
2023-05-09T15:21:47.678Z,16.30
2023-05-09T15:24:49.569Z,16.30
2023-05-09T15:27:51.524Z,16.30
2023-05-09T15:30:58.533Z,16.30
2023-05-09T15:34:01.415Z,16.30
2023-05-09T15:37:03.523Z,16.20
2023-05-09T15:40:12.004Z,16.20
2023-05-09T15:43:14.655Z,16.20
2023-05-09T15:46:17.145Z,16.30
2023-05-09T15:52:48.405Z,16.30
2023-05-09T15:55:57.285Z,16.20
2023-05-09T15:58:59.417Z,16.20
2023-05-09T16:02:01.414Z,16.20
2023-05-09T16:05:03.268Z,16.10
2023-05-09T16:08:06.014Z,16.00
2023-05-09T16:11:07.983Z,16.00
2023-05-09T16:14:11.874Z,15.90
2023-05-09T16:17:13.774Z,15.90
2023-05-09T16:20:15.887Z,15.80
2023-05-09T16:23:17.950Z,15.70
2023-05-09T16:26:20.660Z,15.70
2023-05-09T16:29:22.807Z,15.60
2023-05-09T16:32:25.033Z,15.60
2023-05-09T16:35:26.885Z,15.50
2023-05-09T16:38:30.390Z,15.50
2023-05-09T16:41:32.652Z,15.40
2023-05-09T16:44:36.964Z,15.40
2023-05-09T16:47:39.063Z,15.30
2023-05-09T16:50:44.319Z,15.30
2023-05-09T16:53:46.234Z,15.20
2023-05-09T16:56:48.178Z,15.20
2023-05-09T16:59:52.422Z,15.30
2023-05-09T17:02:54.648Z,15.30
2023-05-09T17:05:56.524Z,15.20
2023-05-09T17:08:58.280Z,15.20
2023-05-09T17:12:00.609Z,15.20
2023-05-09T17:15:02.493Z,15.20
2023-05-09T17:18:04.886Z,15.10
2023-05-09T17:21:06.973Z,15.10
2023-05-09T17:24:09.648Z,15.00
2023-05-09T17:27:11.638Z,15.00
2023-05-09T17:30:15.068Z,15.10
2023-05-09T17:33:16.958Z,15.10
2023-05-09T17:36:19.019Z,15.10
2023-05-09T17:39:25.474Z,15.10
2023-05-09T17:42:38.755Z,15.10
2023-05-09T17:45:41.302Z,15.00
2023-05-09T17:48:43.738Z,15.00
2023-05-09T17:51:45.955Z,15.00
2023-05-09T17:54:47.962Z,15.00
2023-05-09T17:57:49.739Z,15.00
2023-05-09T18:00:55.328Z,15.00
2023-05-09T18:03:57.850Z,15.00
2023-05-09T18:06:59.897Z,15.00
2023-05-09T18:10:09.486Z,14.90
2023-05-09T18:13:14.345Z,14.90
2023-05-09T18:16:16.289Z,14.90
2023-05-09T18:19:18.271Z,14.90
2023-05-09T18:22:26.439Z,14.90
2023-05-09T18:25:28.413Z,14.80
2023-05-09T18:28:36.818Z,14.80
2023-05-09T18:31:39.835Z,14.80
2023-05-09T18:34:42.955Z,14.70
2023-05-09T18:37:44.806Z,14.80
2023-05-09T18:40:47.541Z,14.80
2023-05-09T18:43:49.658Z,14.80
2023-05-09T18:46:53.730Z,14.80
2023-05-09T18:49:55.530Z,14.80
2023-05-09T18:52:57.618Z,14.80
2023-05-09T18:55:59.864Z,14.80
2023-05-09T18:59:01.667Z,14.80
2023-05-09T19:02:03.468Z,14.70
2023-05-09T19:05:17.224Z,14.80
2023-05-09T19:08:19.087Z,14.80
2023-05-09T19:11:22.103Z,14.70
2023-05-09T19:14:24.103Z,14.70
2023-05-09T19:17:26.819Z,14.70
2023-05-09T19:20:29.823Z,14.70
2023-05-09T19:23:31.835Z,14.70
2023-05-09T19:26:33.946Z,14.60
2023-05-09T19:29:36.866Z,14.60
2023-05-09T19:32:38.720Z,14.70
2023-05-09T19:35:44.464Z,14.60
2023-05-09T19:38:46.803Z,14.60
2023-05-09T19:41:49.595Z,14.60
2023-05-09T19:44:53.296Z,14.60
2023-05-09T19:47:56.582Z,14.70
2023-05-09T19:50:59.231Z,14.70
2023-05-09T19:54:01.175Z,14.70
2023-05-09T19:57:06.337Z,14.70
2023-05-09T20:00:11.938Z,14.70
2023-05-09T20:03:14.288Z,14.60
2023-05-09T20:06:20.310Z,14.70
2023-05-09T20:09:22.236Z,14.70
2023-05-09T20:12:27.908Z,14.60
2023-05-09T20:15:31.359Z,14.60
2023-05-09T20:18:33.834Z,14.70
2023-05-09T20:21:35.896Z,14.70
2023-05-09T20:24:37.944Z,14.70
2023-05-09T20:27:39.700Z,14.70
2023-05-09T20:30:43.316Z,14.70
2023-05-09T20:33:45.157Z,14.70
2023-05-09T20:36:51.615Z,14.60
2023-05-09T20:39:53.591Z,14.70
2023-05-09T20:42:55.481Z,14.70
2023-05-09T20:45:58.685Z,14.70
2023-05-09T20:49:01.571Z,14.70
2023-05-09T20:52:03.473Z,14.70
2023-05-09T20:55:05.998Z,14.70
2023-05-09T20:58:07.863Z,14.70
2023-05-09T21:01:16.017Z,14.70
2023-05-09T21:04:18.110Z,14.70
2023-05-09T21:07:26.135Z,14.60
2023-05-09T21:10:27.842Z,14.70
2023-05-09T21:13:34.415Z,14.70
2023-05-09T21:16:36.326Z,14.70
2023-05-09T21:19:38.922Z,14.70
2023-05-09T21:22:40.898Z,14.70
2023-05-09T21:25:43.672Z,14.70
2023-05-09T21:28:45.428Z,14.70
2023-05-09T21:31:48.049Z,14.70
2023-05-09T21:34:50.079Z,14.60
2023-05-09T21:37:54.938Z,14.60
2023-05-09T21:40:58.260Z,14.60
2023-05-09T21:44:00.443Z,14.70
2023-05-09T21:47:02.296Z,14.70
2023-05-09T21:50:06.174Z,14.70
2023-05-09T21:53:08.657Z,14.60
2023-05-09T21:56:15.193Z,14.70
2023-05-09T21:59:20.790Z,14.70
2023-05-09T22:02:28.977Z,14.70
2023-05-09T22:05:31.351Z,14.70
2023-05-09T22:08:33.514Z,14.70
2023-05-09T22:11:36.479Z,14.70
2023-05-09T22:14:45.379Z,14.60
2023-05-09T22:17:57.370Z,14.60
2023-05-09T22:21:01.757Z,14.60
2023-05-09T22:24:03.717Z,14.60
2023-05-09T22:27:06.484Z,14.60
2023-05-09T22:30:12.401Z,14.60
2023-05-09T22:33:17.674Z,14.70
2023-05-09T22:36:25.773Z,14.60
2023-05-09T22:39:29.436Z,14.70
2023-05-09T22:42:31.694Z,14.60
2023-05-09T22:45:41.815Z,14.60
2023-05-09T22:48:43.558Z,14.60
2023-05-09T22:51:45.759Z,14.70
2023-05-09T22:54:47.526Z,14.60
2023-05-09T22:57:50.162Z,14.60
2023-05-09T23:00:52.108Z,14.60
2023-05-09T23:03:53.948Z,14.60
2023-05-09T23:06:56.144Z,14.50
2023-05-09T23:09:58.266Z,14.50
2023-05-09T23:13:00.063Z,14.50
2023-05-09T23:16:02.900Z,14.60
2023-05-09T23:19:04.776Z,14.50
2023-05-09T23:22:06.601Z,14.50
2023-05-09T23:25:09.336Z,14.50
2023-05-09T23:28:11.376Z,14.50
2023-05-09T23:31:13.227Z,14.50
2023-05-09T23:34:16.041Z,14.50
2023-05-09T23:37:18.146Z,14.50
2023-05-09T23:40:22.373Z,14.50
2023-05-09T23:43:25.144Z,14.50
2023-05-09T23:46:31.798Z,14.50
2023-05-09T23:49:33.576Z,14.40
2023-05-09T23:52:40.032Z,14.40
2023-05-09T23:55:41.842Z,14.40
2023-05-09T23:58:52.449Z,14.50
